首页
METAR-TAF:

METAR-TAF

机场 :

Lutselk'e, 西北特區, 加拿大

纬度: 62-25N, 经度: 110-40W, 海拔: 179米

当前天气观测

该预报发布于19分钟前的15:00 UTC
风速3节,风向南转西南
温度 -17°C
湿度 77%
气压 1009 hPa
能見度: 40.2公里
阴天层高于1000英尺

METAR: CYLK 201500Z 21003KT 25SM OVC010 M17/M20 A2979 RMK SC8 2.4/46/SNW CVR MUCH LOOSE SLP112

时间: 08:19 (15:19 UTC)

预报

该预报发布于20小时和41分钟前的18:38 UTC
预报有效从19日的 19点(UTC)到 20日的 01点(UTC)
风速6节,风向东转东北
能見度: 10公里
天空无云

TAF: CYLK 191838Z 1919/2001 06006KT P6SM SKC RMK NXT FCST WILL BE ISSUED AT 201645Z

超过4000个机场的气象观测和天气预报(METAR&TAF报告)。

可查询的气象台以黄色和红色小点在地图上表示。

将鼠标移到小点上方,可查看气象台名称。

然后点击查看天气观测和预报。

如需切换地图:点击带黑十字的绿色按钮放大地图;点击带横线的绿色按钮缩小地图;或者点击绿色箭头查看邻近地区的地图。


METAR-TAF: